Time;durP1;ratioP1;P1;durP2;ratioP2;P2;SDS_P1;SDS_P2;PMS_P1;PMS_P2;Temp;Humidity;BMP_temperature;BMP_pressure;BME280_temperature;BME280_humidity;BME280_pressure;Samples;Min_cycle;Max_cycle;Signal;HPM_P1;HPM_P2
2022/07/28 00:02:05;;;;;;;314.83;159.03;;;;;;;;;;5007076;28;20201;-70
2022/07/28 00:04:31;;;;;;;349.53;172.73;;;;;;;;;;5004319;28;20184;-70
2022/07/28 00:06:57;;;;;;;360.77;182.13;;;;;;;;;;4999763;28;20674;-70
2022/07/28 00:09:23;;;;;;;366.20;181.73;;;;;;;;;;5018912;28;20224;-70
2022/07/28 00:11:49;;;;;;;381.73;188.20;;;;;;;;;;4999673;28;21109;-70
2022/07/28 00:14:15;;;;;;;379.57;188.57;;;;;;;;;;5002225;28;20213;-70
2022/07/28 00:16:41;;;;;;;368.00;185.17;;;;;;;;;;5001059;28;20243;-70
2022/07/28 00:19:07;;;;;;;282.13;147.17;;;;;;;;;;5005851;28;20991;-70
2022/07/28 00:21:33;;;;;;;314.70;162.60;;;;;;;;;;5004928;28;20225;-70
2022/07/28 00:23:59;;;;;;;357.60;183.13;;;;;;;;;;5006343;28;20217;-70
2022/07/28 00:26:25;;;;;;;331.90;168.20;;;;;;;;;;5009876;28;20221;-70
2022/07/28 00:28:51;;;;;;;359.70;184.03;;;;;;;;;;5000396;28;20188;-70
2022/07/28 00:31:17;;;;;;;331.70;168.80;;;;;;;;;;5003031;28;20875;-70
2022/07/28 00:33:43;;;;;;;336.37;173.90;;;;;;;;;;5005800;28;20220;-70
2022/07/28 00:36:09;;;;;;;349.70;178.10;;;;;;;;;;5005341;28;20217;-70
2022/07/28 00:38:36;;;;;;;369.13;185.13;;;;;;;;;;5002262;28;20221;-70
2022/07/28 00:41:11;;;;;;;380.47;190.33;;;;;;;;;;5001011;28;20193;-70
2022/07/28 00:43:41;;;;;;;316.83;162.10;;;;;;;;;;5005359;28;20177;-70
2022/07/28 00:46:07;;;;;;;319.40;166.60;;;;;;;;;;5003626;28;20217;-70
2022/07/28 00:48:36;;;;;;;302.93;156.73;;;;;;;;;;5008878;28;20275;-70
2022/07/28 00:51:02;;;;;;;339.43;173.37;;;;;;;;;;5003249;28;20216;-70
2022/07/28 00:53:29;;;;;;;300.53;155.57;;;;;;;;;;5010375;28;20216;-70
2022/07/28 00:55:55;;;;;;;316.40;162.27;;;;;;;;;;5004502;28;20180;-70
2022/07/28 00:58:21;;;;;;;320.20;160.90;;;;;;;;;;5003645;28;20240;-70
2022/07/28 01:00:47;;;;;;;346.50;177.90;;;;;;;;;;5000075;28;20224;-70
2022/07/28 01:03:13;;;;;;;356.00;175.60;;;;;;;;;;4999950;28;20221;-70
2022/07/28 01:05:45;;;;;;;382.67;191.80;;;;;;;;;;5003319;28;20748;-69
2022/07/28 01:08:18;;;;;;;284.07;146.33;;;;;;;;;;5007539;28;20235;-70
2022/07/28 01:10:44;;;;;;;332.53;172.97;;;;;;;;;;4995187;28;20177;-70
2022/07/28 01:13:16;;;;;;;325.43;166.17;;;;;;;;;;5004493;28;20231;-70
2022/07/28 01:15:48;;;;;;;385.90;197.53;;;;;;;;;;5005928;28;20678;-70
2022/07/28 01:18:18;;;;;;;371.67;185.83;;;;;;;;;;4999012;28;20224;-70
2022/07/28 01:20:46;;;;;;;313.93;159.93;;;;;;;;;;5014676;28;20225;-70
2022/07/28 01:23:13;;;;;;;323.43;164.53;;;;;;;;;;5000175;28;20232;-70
2022/07/28 01:25:45;;;;;;;353.27;181.00;;;;;;;;;;5000413;28;20206;-70
2022/07/28 01:28:28;;;;;;;322.50;164.53;;;;;;;;;;5004517;28;20221;-70
2022/07/28 01:30:55;;;;;;;385.50;193.97;;;;;;;;;;4998638;28;20231;-70
2022/07/28 01:33:25;;;;;;;309.67;155.43;;;;;;;;;;5003199;28;20244;-69
2022/07/28 01:35:53;;;;;;;386.33;195.43;;;;;;;;;;4996226;28;20693;-70
2022/07/28 01:38:20;;;;;;;315.43;160.90;;;;;;;;;;4996001;28;20276;-70
2022/07/28 01:40:46;;;;;;;354.27;179.03;;;;;;;;;;5012197;28;20190;-70
2022/07/28 01:43:14;;;;;;;298.57;153.63;;;;;;;;;;5011080;28;20224;-70
2022/07/28 01:45:41;;;;;;;397.30;199.97;;;;;;;;;;5000502;28;20221;-70
2022/07/28 01:48:08;;;;;;;319.03;161.53;;;;;;;;;;5004264;28;20221;-70
2022/07/28 01:50:36;;;;;;;273.27;144.23;;;;;;;;;;5007156;28;20224;-70
2022/07/28 01:53:02;;;;;;;333.20;167.43;;;;;;;;;;5006719;28;20543;-70
2022/07/28 01:55:29;;;;;;;286.90;145.53;;;;;;;;;;5010261;28;20193;-70
2022/07/28 01:57:56;;;;;;;319.63;162.97;;;;;;;;;;5002732;28;20217;-70
2022/07/28 02:00:23;;;;;;;295.37;148.57;;;;;;;;;;5004010;28;20228;-70
2022/07/28 02:02:49;;;;;;;341.70;171.23;;;;;;;;;;5005698;28;20225;-69
2022/07/28 02:05:17;;;;;;;323.37;161.10;;;;;;;;;;5002782;28;20225;-70
2022/07/28 02:07:44;;;;;;;310.07;157.23;;;;;;;;;;5009816;28;20192;-70
2022/07/28 02:10:11;;;;;;;283.17;148.17;;;;;;;;;;5000922;28;20213;-70
2022/07/28 02:12:38;;;;;;;301.33;153.57;;;;;;;;;;5001815;28;20221;-70
2022/07/28 02:15:07;;;;;;;267.70;140.03;;;;;;;;;;5001361;28;20224;-70
2022/07/28 02:17:34;;;;;;;290.37;148.23;;;;;;;;;;5002486;28;20225;-70
2022/07/28 02:20:00;;;;;;;303.77;155.57;;;;;;;;;;5014155;28;20185;-70
2022/07/28 02:22:26;;;;;;;282.43;145.00;;;;;;;;;;5007145;28;20193;-70
2022/07/28 02:24:56;;;;;;;369.20;182.27;;;;;;;;;;4994347;28;20220;-70
2022/07/28 02:27:24;;;;;;;289.43;145.73;;;;;;;;;;5004449;28;20220;-70
2022/07/28 02:29:56;;;;;;;328.93;161.27;;;;;;;;;;5000468;28;20224;-70
2022/07/28 02:32:27;;;;;;;268.57;134.47;;;;;;;;;;5015864;28;20245;-70
2022/07/28 02:34:55;;;;;;;348.80;171.93;;;;;;;;;;5015824;28;20185;-70
2022/07/28 02:37:22;;;;;;;281.63;139.27;;;;;;;;;;5001631;28;20630;-70
2022/07/28 02:39:53;;;;;;;326.50;159.30;;;;;;;;;;4998738;28;20225;-70
2022/07/28 02:42:20;;;;;;;260.37;135.50;;;;;;;;;;5005406;28;20222;-70
2022/07/28 02:44:49;;;;;;;269.27;140.33;;;;;;;;;;5003060;28;20213;-70
2022/07/28 02:47:18;;;;;;;290.53;147.80;;;;;;;;;;5017688;28;20221;-70
2022/07/28 02:49:45;;;;;;;290.63;144.97;;;;;;;;;;5002528;28;20173;-70
2022/07/28 02:52:12;;;;;;;275.73;141.67;;;;;;;;;;5002627;28;20348;-70
2022/07/28 02:54:39;;;;;;;259.60;138.83;;;;;;;;;;4998404;28;20251;-70
2022/07/28 02:57:05;;;;;;;270.53;138.80;;;;;;;;;;4999691;28;20276;-70
2022/07/28 02:59:32;;;;;;;256.10;136.77;;;;;;;;;;5003803;28;20223;-70
2022/07/28 03:01:58;;;;;;;298.53;149.80;;;;;;;;;;5002341;28;20202;-70
2022/07/28 03:07:09;;;;;;;285.00;145.63;;;;;;;;;;4996386;28;20228;-70
2022/07/28 03:09:42;;;;;;;297.43;149.27;;;;;;;;;;4999084;28;20231;-70
2022/07/28 03:12:09;;;;;;;358.53;184.77;;;;;;;;;;5003484;28;20214;-70
2022/07/28 03:14:35;;;;;;;240.13;127.17;;;;;;;;;;5008164;28;20221;-70
2022/07/28 03:17:01;;;;;;;273.90;142.17;;;;;;;;;;5002325;28;20201;-70
2022/07/28 03:19:27;;;;;;;249.73;130.60;;;;;;;;;;5006056;28;20185;-70
2022/07/28 03:21:53;;;;;;;315.80;157.47;;;;;;;;;;4993387;28;20228;-70
2022/07/28 03:24:26;;;;;;;275.73;139.03;;;;;;;;;;5001497;28;20643;-70
2022/07/28 03:26:55;;;;;;;295.10;150.37;;;;;;;;;;4999571;28;20248;-70
2022/07/28 03:29:22;;;;;;;237.90;124.47;;;;;;;;;;5004000;28;20221;-70
2022/07/28 03:31:49;;;;;;;277.57;142.73;;;;;;;;;;5001150;28;20204;-70
2022/07/28 03:34:15;;;;;;;234.03;121.63;;;;;;;;;;4998080;28;20182;-70
2022/07/28 03:36:44;;;;;;;232.00;123.13;;;;;;;;;;5005922;28;20228;-70
2022/07/28 03:39:10;;;;;;;222.77;119.63;;;;;;;;;;5005647;28;20615;-70
2022/07/28 03:41:37;;;;;;;208.20;111.67;;;;;;;;;;5007535;28;20224;-70
2022/07/28 03:44:03;;;;;;;270.00;135.00;;;;;;;;;;5000834;28;20308;-70
2022/07/28 03:46:29;;;;;;;237.43;124.27;;;;;;;;;;5006657;28;20253;-70
2022/07/28 03:48:55;;;;;;;287.67;144.97;;;;;;;;;;5003869;28;20216;-70
2022/07/28 03:51:24;;;;;;;236.67;120.80;;;;;;;;;;5008289;28;20224;-70
2022/07/28 03:53:50;;;;;;;284.30;142.70;;;;;;;;;;4999927;28;20213;-70
2022/07/28 03:56:16;;;;;;;222.20;117.40;;;;;;;;;;5004852;28;20223;-70
2022/07/28 03:58:42;;;;;;;252.57;128.57;;;;;;;;;;5006166;28;20204;-70
2022/07/28 04:01:07;;;;;;;276.80;138.30;;;;;;;;;;5003919;28;20224;-70
2022/07/28 04:03:33;;;;;;;223.80;118.83;;;;;;;;;;5007540;28;20224;-70
2022/07/28 04:05:59;;;;;;;337.67;165.70;;;;;;;;;;5003009;28;20722;-70
2022/07/28 04:08:25;;;;;;;250.87;127.93;;;;;;;;;;4998703;28;20282;-70
2022/07/28 04:10:52;;;;;;;299.30;153.30;;;;;;;;;;5000475;28;20231;-70
2022/07/28 04:13:19;;;;;;;244.87;127.87;;;;;;;;;;5011808;28;20539;-70
2022/07/28 04:15:44;;;;;;;342.70;170.90;;;;;;;;;;5004438;28;20217;-70
2022/07/28 04:18:10;;;;;;;248.67;133.07;;;;;;;;;;5007629;28;20699;-69
2022/07/28 04:20:36;;;;;;;248.77;135.57;;;;;;;;;;5004754;28;20217;-70
2022/07/28 04:23:03;;;;;;;303.30;158.80;;;;;;;;;;5002044;28;20219;-70
2022/07/28 04:25:29;;;;;;;238.80;129.63;;;;;;;;;;4999537;28;20192;-70
2022/07/28 04:27:55;;;;;;;274.10;142.70;;;;;;;;;;5006887;28;20216;-70
2022/07/28 04:30:23;;;;;;;273.77;140.13;;;;;;;;;;5006726;28;20213;-70
2022/07/28 04:32:50;;;;;;;259.90;141.60;;;;;;;;;;5002324;28;20278;-70
2022/07/28 04:35:16;;;;;;;237.47;129.40;;;;;;;;;;5006568;28;20486;-70
2022/07/28 04:37:43;;;;;;;259.60;136.83;;;;;;;;;;5003856;28;20196;-70
2022/07/28 04:40:09;;;;;;;262.87;138.27;;;;;;;;;;5000507;28;20563;-71
2022/07/28 04:42:37;;;;;;;239.73;133.80;;;;;;;;;;5005316;28;20232;-71
2022/07/28 04:45:04;;;;;;;281.20;144.87;;;;;;;;;;5006071;28;20709;-70
2022/07/28 04:47:30;;;;;;;252.23;137.13;;;;;;;;;;5003209;28;20536;-70
2022/07/28 04:49:56;;;;;;;270.10;141.97;;;;;;;;;;5007545;28;20259;-70
2022/07/28 04:52:22;;;;;;;245.03;131.73;;;;;;;;;;5003161;28;20675;-70
2022/07/28 04:54:48;;;;;;;308.87;164.10;;;;;;;;;;5001939;28;20224;-70
2022/07/28 04:57:14;;;;;;;257.67;138.17;;;;;;;;;;5004314;28;20221;-70
2022/07/28 04:59:40;;;;;;;243.67;136.70;;;;;;;;;;5001741;28;20229;-70
2022/07/28 05:02:06;;;;;;;240.60;135.73;;;;;;;;;;5001251;28;20219;-70
2022/07/28 05:04:32;;;;;;;225.37;126.97;;;;;;;;;;5012226;28;20204;-70
2022/07/28 05:06:58;;;;;;;276.30;149.03;;;;;;;;;;5008960;28;20225;-70
2022/07/28 05:09:24;;;;;;;291.83;154.07;;;;;;;;;;5005931;28;20658;-70
2022/07/28 05:11:50;;;;;;;274.67;151.33;;;;;;;;;;5005606;28;20669;-70
2022/07/28 05:14:16;;;;;;;271.33;146.80;;;;;;;;;;5004353;28;20213;-71
2022/07/28 05:16:43;;;;;;;275.87;148.73;;;;;;;;;;5002654;28;20197;-71
2022/07/28 05:19:09;;;;;;;256.67;139.77;;;;;;;;;;5006611;28;20278;-70
2022/07/28 05:21:35;;;;;;;265.40;149.53;;;;;;;;;;5007194;28;20225;-70
2022/07/28 05:24:01;;;;;;;269.77;151.10;;;;;;;;;;5010137;28;20216;-70
2022/07/28 05:26:27;;;;;;;296.10;158.47;;;;;;;;;;5005086;28;20216;-70
2022/07/28 05:28:53;;;;;;;310.53;167.70;;;;;;;;;;5008311;28;20585;-70
2022/07/28 05:31:19;;;;;;;262.70;144.50;;;;;;;;;;5003805;28;20715;-67
2022/07/28 05:33:45;;;;;;;310.17;167.53;;;;;;;;;;4999417;28;20229;-67
2022/07/28 05:36:11;;;;;;;287.60;153.90;;;;;;;;;;4999726;28;20229;-67
2022/07/28 05:38:37;;;;;;;228.33;131.13;;;;;;;;;;5008104;28;20773;-67
2022/07/28 05:41:05;;;;;;;337.23;170.00;;;;;;;;;;4992621;28;20711;-67
2022/07/28 05:43:31;;;;;;;296.67;155.50;;;;;;;;;;4996508;28;20742;-67
2022/07/28 05:45:57;;;;;;;346.43;179.43;;;;;;;;;;5004547;28;20225;-67
2022/07/28 05:48:23;;;;;;;296.27;157.43;;;;;;;;;;5005408;28;20221;-67
2022/07/28 05:50:50;;;;;;;292.23;159.70;;;;;;;;;;4997345;28;20229;-66
2022/07/28 05:53:16;;;;;;;301.87;160.93;;;;;;;;;;5004899;28;20228;-67
2022/07/28 05:55:42;;;;;;;340.27;183.77;;;;;;;;;;5002342;28;20185;-67
2022/07/28 05:58:08;;;;;;;359.33;192.13;;;;;;;;;;4999419;28;20799;-66
2022/07/28 06:00:35;;;;;;;295.73;162.02;;;;;;;;;;5002652;28;20220;-69
2022/07/28 06:03:01;;;;;;;307.37;162.73;;;;;;;;;;4995832;28;20220;-68
2022/07/28 06:05:27;;;;;;;323.97;171.90;;;;;;;;;;5004346;28;20686;-67
2022/07/28 06:07:53;;;;;;;320.53;173.00;;;;;;;;;;5004659;28;20181;-70
2022/07/28 06:10:21;;;;;;;348.47;183.57;;;;;;;;;;5001959;28;20188;-69
2022/07/28 06:12:51;;;;;;;281.50;154.80;;;;;;;;;;5001834;28;20244;-69
2022/07/28 06:15:24;;;;;;;334.00;173.93;;;;;;;;;;4986846;28;20224;-68
2022/07/28 06:17:51;;;;;;;337.57;180.40;;;;;;;;;;4995286;28;20233;-72
2022/07/28 06:20:17;;;;;;;313.60;171.43;;;;;;;;;;5001520;28;20224;-71
2022/07/28 06:22:44;;;;;;;375.60;194.93;;;;;;;;;;4999723;28;20674;-71
2022/07/28 06:25:14;;;;;;;269.63;150.33;;;;;;;;;;4999702;28;20224;-69
2022/07/28 06:27:40;;;;;;;332.40;177.63;;;;;;;;;;5000831;28;20298;-69
2022/07/28 06:30:06;;;;;;;349.00;185.43;;;;;;;;;;5002660;28;20536;-70
2022/07/28 06:32:32;;;;;;;332.47;183.27;;;;;;;;;;4992406;28;20280;-70
2022/07/28 06:34:58;;;;;;;410.27;220.53;;;;;;;;;;4993974;28;20176;-73
2022/07/28 06:37:24;;;;;;;384.50;209.20;;;;;;;;;;4994109;28;20183;-68
2022/07/28 06:39:50;;;;;;;358.80;193.48;;;;;;;;;;4994106;28;20244;-71
2022/07/28 06:42:16;;;;;;;431.50;236.40;;;;;;;;;;5005514;28;20559;-72
2022/07/28 06:44:42;;;;;;;299.70;165.10;;;;;;;;;;5004044;28;20221;-75
2022/07/28 06:47:08;;;;;;;339.67;182.33;;;;;;;;;;5003973;28;20500;-74
2022/07/28 06:49:33;;;;;;;355.48;190.13;;;;;;;;;;5001903;28;20213;-73
2022/07/28 06:51:59;;;;;;;347.33;187.23;;;;;;;;;;5006417;28;20311;-74
2022/07/28 06:54:25;;;;;;;377.15;199.55;;;;;;;;;;4995734;28;20268;-72
2022/07/28 06:56:52;;;;;;;353.03;187.27;;;;;;;;;;5000419;28;20225;-62
2022/07/28 06:59:18;;;;;;;311.08;165.90;;;;;;;;;;5004237;28;20220;-62
2022/07/28 07:01:44;;;;;;;307.48;164.90;;;;;;;;;;5006581;28;20200;-62
2022/07/28 07:04:10;;;;;;;346.65;183.55;;;;;;;;;;4999303;28;20224;-61
2022/07/28 07:06:36;;;;;;;323.02;174.20;;;;;;;;;;5010489;28;20563;-62
2022/07/28 07:09:02;;;;;;;341.42;180.93;;;;;;;;;;5004373;28;20221;-62
2022/07/28 07:11:28;;;;;;;396.90;211.77;;;;;;;;;;4997122;28;20224;-61
2022/07/28 07:13:54;;;;;;;401.63;218.25;;;;;;;;;;4997787;28;20181;-60
2022/07/28 07:16:20;;;;;;;408.55;220.45;;;;;;;;;;4994880;28;20275;-60
2022/07/28 07:18:49;;;;;;;443.95;231.73;;;;;;;;;;5000950;28;20228;-61
2022/07/28 07:21:15;;;;;;;395.65;208.57;;;;;;;;;;5000410;28;20233;-61
2022/07/28 07:23:41;;;;;;;375.35;201.45;;;;;;;;;;5002038;28;20228;-61
2022/07/28 07:26:07;;;;;;;392.55;214.73;;;;;;;;;;4999043;28;20189;-62
2022/07/28 07:28:33;;;;;;;389.98;209.57;;;;;;;;;;5001212;28;20676;-61
2022/07/28 07:30:59;;;;;;;413.02;221.18;;;;;;;;;;4998373;28;20271;-62
2022/07/28 07:33:25;;;;;;;506.10;271.02;;;;;;;;;;4992059;28;20230;-61
2022/07/28 07:35:51;;;;;;;433.17;237.48;;;;;;;;;;4995492;28;20221;-61
2022/07/28 07:38:17;;;;;;;386.20;208.40;;;;;;;;;;5000768;28;20228;-69
2022/07/28 07:40:43;;;;;;;395.30;210.10;;;;;;;;;;5012318;28;20740;-70
2022/07/28 07:43:09;;;;;;;393.50;211.18;;;;;;;;;;5003828;28;20225;-69
2022/07/28 07:45:35;;;;;;;434.73;229.82;;;;;;;;;;4996297;28;20229;-70
2022/07/28 07:48:02;;;;;;;440.83;228.10;;;;;;;;;;4999737;28;20216;-68
2022/07/28 07:50:28;;;;;;;421.27;224.65;;;;;;;;;;5001701;28;20236;-67
2022/07/28 07:52:54;;;;;;;428.30;229.18;;;;;;;;;;5001336;28;20254;-67
2022/07/28 07:55:20;;;;;;;375.58;203.00;;;;;;;;;;5002536;28;20208;-68
2022/07/28 07:57:46;;;;;;;427.90;228.82;;;;;;;;;;5005974;28;20668;-68
2022/07/28 08:00:12;;;;;;;403.77;218.55;;;;;;;;;;5004578;28;20216;-68
2022/07/28 08:02:38;;;;;;;414.38;213.85;;;;;;;;;;5003233;28;20229;-68
2022/07/28 08:05:05;;;;;;;350.90;188.13;;;;;;;;;;5002092;28;20188;-68
2022/07/28 08:07:31;;;;;;;369.52;190.63;;;;;;;;;;5007464;28;20178;-68
2022/07/28 08:09:56;;;;;;;372.73;204.95;;;;;;;;;;5009541;28;20659;-68
2022/07/28 08:12:22;;;;;;;371.83;194.63;;;;;;;;;;5010287;28;20335;-68
2022/07/28 08:14:48;;;;;;;389.00;201.05;;;;;;;;;;5013359;28;20232;-68
2022/07/28 08:17:14;;;;;;;390.25;203.00;;;;;;;;;;5009396;28;20244;-69
2022/07/28 08:19:40;;;;;;;376.60;194.90;;;;;;;;;;5008117;28;20605;-69
2022/07/28 08:22:06;;;;;;;346.52;192.18;;;;;;;;;;5009834;28;20221;-68
2022/07/28 08:24:32;;;;;;;399.23;213.40;;;;;;;;;;5005476;28;20615;-68
2022/07/28 08:26:58;;;;;;;399.50;210.02;;;;;;;;;;5007052;28;20233;-68
2022/07/28 08:29:24;;;;;;;365.83;192.65;;;;;;;;;;5010357;28;20253;-68
2022/07/28 08:31:50;;;;;;;417.92;223.38;;;;;;;;;;5013404;28;20273;-68
2022/07/28 08:34:16;;;;;;;370.73;195.35;;;;;;;;;;5008455;28;20562;-68
2022/07/28 08:36:42;;;;;;;350.08;189.30;;;;;;;;;;5013008;28;20414;-68
2022/07/28 08:39:08;;;;;;;382.63;209.88;;;;;;;;;;5006978;28;20228;-68
2022/07/28 08:41:51;;;;;;;358.88;196.50;;;;;;;;;;5010166;28;20216;-68
2022/07/28 08:44:20;;;;;;;397.00;215.68;;;;;;;;;;5009940;28;20328;-68
2022/07/28 08:46:50;;;;;;;399.52;214.25;;;;;;;;;;5009286;28;20181;-68
2022/07/28 08:49:16;;;;;;;379.88;205.25;;;;;;;;;;5011429;28;20233;-68
2022/07/28 08:51:43;;;;;;;356.88;195.05;;;;;;;;;;5010757;28;20427;-68
2022/07/28 08:54:10;;;;;;;376.95;202.32;;;;;;;;;;5013512;28;20562;-68
2022/07/28 08:56:40;;;;;;;371.73;206.02;;;;;;;;;;5004692;28;20221;-68
2022/07/28 08:59:06;;;;;;;363.77;200.88;;;;;;;;;;5004262;28;20189;-68
2022/07/28 09:01:32;;;;;;;364.52;200.15;;;;;;;;;;5013311;28;20204;-68
2022/07/28 09:03:59;;;;;;;413.85;230.32;;;;;;;;;;5006667;28;20228;-68
2022/07/28 09:06:25;;;;;;;365.55;199.70;;;;;;;;;;5013077;28;20228;-68
2022/07/28 09:08:51;;;;;;;403.00;220.27;;;;;;;;;;5009909;28;20278;-68
2022/07/28 09:11:17;;;;;;;402.17;219.35;;;;;;;;;;5008249;28;20225;-68
2022/07/28 09:13:43;;;;;;;357.73;206.02;;;;;;;;;;5014006;28;20180;-68
2022/07/28 09:16:09;;;;;;;355.08;210.07;;;;;;;;;;5005174;28;20217;-69
2022/07/28 09:18:35;;;;;;;418.00;228.63;;;;;;;;;;5009946;28;20244;-68
2022/07/28 09:21:01;;;;;;;410.40;230.73;;;;;;;;;;5009007;28;20217;-68
2022/07/28 09:23:41;;;;;;;371.55;207.23;;;;;;;;;;5011760;28;20680;-68
2022/07/28 09:26:10;;;;;;;360.73;227.65;;;;;;;;;;5006390;28;20201;-68
2022/07/28 09:28:46;;;;;;;361.77;220.23;;;;;;;;;;5000634;28;20199;-69
2022/07/28 09:31:13;;;;;;;382.95;216.50;;;;;;;;;;5009815;28;20537;-68
2022/07/28 09:33:39;;;;;;;401.95;233.98;;;;;;;;;;5008335;28;20228;-68
2022/07/28 09:36:12;;;;;;;361.52;219.60;;;;;;;;;;5008854;28;20274;-68
2022/07/28 09:38:41;;;;;;;401.35;223.68;;;;;;;;;;5008451;28;20224;-68
2022/07/28 09:41:07;;;;;;;377.98;214.13;;;;;;;;;;5006408;28;20215;-68
2022/07/28 09:43:37;;;;;;;368.73;215.85;;;;;;;;;;5009206;28;20499;-67
2022/07/28 09:46:05;;;;;;;364.58;205.40;;;;;;;;;;5005287;28;20553;-68
2022/07/28 09:48:31;;;;;;;389.27;227.02;;;;;;;;;;5011582;28;20228;-68
2022/07/28 09:51:11;;;;;;;396.42;228.65;;;;;;;;;;5009192;28;20559;-68
2022/07/28 09:53:37;;;;;;;373.45;219.07;;;;;;;;;;5012161;28;20227;-69
2022/07/28 09:56:03;;;;;;;396.45;232.73;;;;;;;;;;5013247;28;20458;-68
2022/07/28 09:58:29;;;;;;;373.65;221.43;;;;;;;;;;5006858;28;20176;-68
2022/07/28 10:01:24;;;;;;;405.25;241.02;;;;;;;;;;5011144;28;20216;-68
2022/07/28 10:03:52;;;;;;;412.48;248.13;;;;;;;;;;4993466;28;20286;-68
2022/07/28 10:06:24;;;;;;;381.05;217.82;;;;;;;;;;5009315;28;20537;-69
2022/07/28 10:08:50;;;;;;;392.30;232.80;;;;;;;;;;5013225;28;20586;-69
2022/07/28 10:11:17;;;;;;;387.90;239.38;;;;;;;;;;5011054;28;20528;-68
2022/07/28 10:14:02;;;;;;;385.20;223.35;;;;;;;;;;5012935;28;20659;-68
2022/07/28 10:16:30;;;;;;;376.73;223.68;;;;;;;;;;5007518;28;20209;-68
2022/07/28 10:18:58;;;;;;;403.95;232.95;;;;;;;;;;5005182;28;20220;-69
2022/07/28 10:21:24;;;;;;;371.90;225.55;;;;;;;;;;5007196;28;20702;-69
2022/07/28 10:23:55;;;;;;;408.88;253.30;;;;;;;;;;5012890;28;20222;-69
2022/07/28 10:26:24;;;;;;;370.42;220.85;;;;;;;;;;5007751;28;20224;-69
2022/07/28 10:28:51;;;;;;;390.67;229.88;;;;;;;;;;5006647;28;20181;-68
2022/07/28 10:31:22;;;;;;;379.83;224.75;;;;;;;;;;5012539;28;20610;-69
2022/07/28 10:33:50;;;;;;;389.13;228.40;;;;;;;;;;5008206;28;20223;-69
2022/07/28 10:36:17;;;;;;;368.92;214.60;;;;;;;;;;5000777;28;20220;-68
2022/07/28 10:38:43;;;;;;;376.58;221.57;;;;;;;;;;5011349;28;20504;-69
2022/07/28 10:41:11;;;;;;;389.55;219.80;;;;;;;;;;5006133;28;20224;-68
2022/07/28 10:43:37;;;;;;;367.50;212.45;;;;;;;;;;5006488;28;20512;-68
2022/07/28 10:46:04;;;;;;;384.38;220.18;;;;;;;;;;5007960;28;20559;-68
2022/07/28 10:48:30;;;;;;;387.02;222.30;;;;;;;;;;5003707;28;20559;-68
2022/07/28 10:50:58;;;;;;;396.25;229.93;;;;;;;;;;5009632;28;20221;-68
2022/07/28 10:53:39;;;;;;;376.10;213.18;;;;;;;;;;5011653;28;20216;-68
2022/07/28 10:56:09;;;;;;;359.25;209.70;;;;;;;;;;5003470;28;20180;-68
2022/07/28 10:58:55;;;;;;;365.20;216.82;;;;;;;;;;5010055;28;20523;-68
2022/07/28 11:01:34;;;;;;;380.77;218.98;;;;;;;;;;5008898;28;20217;-68
2022/07/28 11:04:00;;;;;;;399.05;239.73;;;;;;;;;;5006105;28;20444;-68
2022/07/28 11:06:30;;;;;;;371.77;220.88;;;;;;;;;;5009577;28;20235;-68
2022/07/28 11:08:58;;;;;;;407.27;238.15;;;;;;;;;;5011539;28;20524;-68
2022/07/28 11:11:44;;;;;;;390.45;228.05;;;;;;;;;;5002427;28;20575;-69
2022/07/28 11:14:22;;;;;;;351.75;208.27;;;;;;;;;;5008421;28;20220;-68
2022/07/28 11:16:48;;;;;;;409.92;238.05;;;;;;;;;;5003006;28;20174;-68
2022/07/28 11:19:17;;;;;;;370.38;216.05;;;;;;;;;;5004419;28;20575;-69
2022/07/28 11:22:02;;;;;;;382.25;232.10;;;;;;;;;;5003706;28;20232;-68
2022/07/28 11:24:48;;;;;;;409.00;244.18;;;;;;;;;;5007526;28;20240;-68
2022/07/28 11:27:14;;;;;;;366.33;228.45;;;;;;;;;;5004263;28;20291;-68
2022/07/28 11:29:45;;;;;;;389.70;239.60;;;;;;;;;;5010104;28;20671;-68
2022/07/28 11:32:12;;;;;;;404.25;227.55;;;;;;;;;;4997972;28;20221;-68
2022/07/28 11:35:13;;;;;;;383.83;230.10;;;;;;;;;;5005603;28;20614;-68
2022/07/28 11:37:57;;;;;;;379.05;224.95;;;;;;;;;;4948782;28;20210;-68
2022/07/28 11:40:32;;;;;;;383.80;227.07;;;;;;;;;;5003271;28;20643;-68
2022/07/28 11:43:17;;;;;;;402.05;237.95;;;;;;;;;;5004680;28;20228;-68
2022/07/28 11:45:43;;;;;;;411.73;236.40;;;;;;;;;;5005493;28;20555;-68
2022/07/28 11:48:16;;;;;;;400.33;237.10;;;;;;;;;;5007669;28;20219;-68
2022/07/28 11:50:42;;;;;;;380.30;237.02;;;;;;;;;;5005760;28;20590;-68
2022/07/28 11:53:08;;;;;;;365.67;230.23;;;;;;;;;;5008075;28;20262;-69
2022/07/28 11:55:34;;;;;;;437.70;269.63;;;;;;;;;;5011996;28;20634;-70
2022/07/28 11:58:05;;;;;;;393.85;247.13;;;;;;;;;;5004171;28;20217;-68
2022/07/28 12:00:31;;;;;;;378.85;240.82;;;;;;;;;;5010307;28;20208;-69
2022/07/28 12:02:59;;;;;;;408.90;256.85;;;;;;;;;;5005137;28;20269;-69
2022/07/28 12:05:25;;;;;;;371.67;241.65;;;;;;;;;;5019097;28;20213;-69
2022/07/28 12:07:51;;;;;;;418.52;265.50;;;;;;;;;;5013709;28;20200;-69
2022/07/28 12:10:31;;;;;;;374.77;243.90;;;;;;;;;;5013520;28;20177;-68
2022/07/28 12:13:01;;;;;;;392.38;246.48;;;;;;;;;;5010847;28;20229;-69
2022/07/28 12:15:27;;;;;;;393.88;251.23;;;;;;;;;;5010450;28;20241;-69
2022/07/28 12:17:53;;;;;;;599.38;357.40;;;;;;;;;;5001804;28;20220;-69
2022/07/28 12:20:30;;;;;;;589.67;352.05;;;;;;;;;;4994932;28;20221;-74
2022/07/28 12:22:59;;;;;;;450.75;283.45;;;;;;;;;;4986558;28;20724;-68
2022/07/28 12:25:25;;;;;;;458.17;288.88;;;;;;;;;;4998275;28;20204;-68
2022/07/28 12:27:51;;;;;;;545.83;334.85;;;;;;;;;;4996303;28;20217;-68
2022/07/28 12:30:25;;;;;;;417.58;270.05;;;;;;;;;;4996960;28;20213;-64
2022/07/28 12:32:51;;;;;;;413.70;262.27;;;;;;;;;;5000603;28;20216;-64
2022/07/28 12:35:17;;;;;;;396.25;263.92;;;;;;;;;;5007855;28;20213;-68
2022/07/28 12:37:46;;;;;;;405.95;261.00;;;;;;;;;;5004581;28;20193;-66
2022/07/28 12:40:13;;;;;;;371.08;253.13;;;;;;;;;;5006718;28;20217;-67
2022/07/28 12:42:39;;;;;;;420.02;276.92;;;;;;;;;;5003179;28;20225;-66
2022/07/28 12:45:07;;;;;;;440.00;285.95;;;;;;;;;;5008221;28;23718;-68
2022/07/28 12:47:33;;;;;;;385.13;263.70;;;;;;;;;;5009203;28;20229;-68
2022/07/28 12:50:14;;;;;;;418.65;283.17;;;;;;;;;;5006130;28;20177;-69
2022/07/28 12:52:41;;;;;;;379.83;254.35;;;;;;;;;;5003452;28;20252;-68
2022/07/28 12:55:20;;;;;;;415.65;262.48;;;;;;;;;;4996597;28;20227;-65
2022/07/28 12:57:46;;;;;;;395.50;260.55;;;;;;;;;;4999048;28;20535;-65
2022/07/28 13:00:12;;;;;;;393.48;258.33;;;;;;;;;;5004432;28;20219;-66
2022/07/28 13:02:39;;;;;;;495.58;325.63;;;;;;;;;;4994848;28;20291;-66
2022/07/28 13:05:06;;;;;;;502.20;330.27;;;;;;;;;;4988565;28;20239;-67
2022/07/28 13:07:32;;;;;;;408.27;276.73;;;;;;;;;;4994245;28;20180;-63
2022/07/28 13:10:02;;;;;;;582.15;369.00;;;;;;;;;;4995924;28;20232;-64
2022/07/28 13:12:31;;;;;;;445.75;306.02;;;;;;;;;;4991585;28;20232;-62
2022/07/28 13:14:58;;;;;;;487.70;332.67;;;;;;;;;;4996082;28;20223;-64
2022/07/28 13:17:25;;;;;;;437.50;304.98;;;;;;;;;;4994445;28;20224;-64
2022/07/28 13:20:02;;;;;;;449.63;316.42;;;;;;;;;;4993184;28;20531;-64
2022/07/28 13:22:29;;;;;;;430.65;317.10;;;;;;;;;;4995048;28;20211;-64
2022/07/28 13:24:55;;;;;;;461.13;323.00;;;;;;;;;;5002720;28;20221;-64
2022/07/28 13:27:21;;;;;;;393.30;292.23;;;;;;;;;;5002418;28;20208;-64
2022/07/28 13:29:48;;;;;;;386.02;290.90;;;;;;;;;;5005834;28;20551;-64
2022/07/28 13:32:14;;;;;;;360.77;280.08;;;;;;;;;;4998084;28;20458;-63
2022/07/28 13:34:41;;;;;;;448.13;321.23;;;;;;;;;;4999698;28;20289;-64
2022/07/28 13:37:07;;;;;;;429.05;320.23;;;;;;;;;;5011197;28;20271;-64
2022/07/28 13:39:33;;;;;;;461.70;331.75;;;;;;;;;;5004488;28;20232;-63
2022/07/28 13:41:59;;;;;;;515.72;365.35;;;;;;;;;;4998004;28;20229;-64
2022/07/28 13:44:28;;;;;;;441.60;327.67;;;;;;;;;;5003263;28;20686;-63
2022/07/28 13:46:55;;;;;;;444.38;333.88;;;;;;;;;;4999394;28;20172;-63
2022/07/28 13:49:21;;;;;;;416.88;315.85;;;;;;;;;;5014561;28;20191;-64
2022/07/28 13:51:47;;;;;;;415.17;322.55;;;;;;;;;;5002396;28;20598;-64
2022/07/28 13:54:13;;;;;;;419.58;312.23;;;;;;;;;;5017130;28;20853;-64
2022/07/28 13:56:40;;;;;;;475.88;340.73;;;;;;;;;;5012555;28;20208;-63
2022/07/28 13:59:06;;;;;;;422.95;318.00;;;;;;;;;;4998552;28;20181;-64